createdAt,value
2018-05-16T00:00:51.634Z,0.00
2018-05-16T00:01:51.317Z,0.00
2018-05-16T00:02:50.988Z,0.00
2018-05-16T00:03:50.948Z,0.00
2018-05-16T00:04:50.833Z,0.00
2018-05-16T00:05:50.803Z,0.00
2018-05-16T00:07:10.913Z,0.00
2018-05-16T00:08:11.962Z,0.00
2018-05-16T00:09:11.401Z,0.00
2018-05-16T00:10:11.860Z,0.00
2018-05-16T00:11:11.939Z,0.00
2018-05-16T00:12:11.983Z,0.00
2018-05-16T00:13:12.004Z,0.00
2018-05-16T00:14:32.633Z,0.00
2018-05-16T00:15:33.245Z,0.00
2018-05-16T00:16:33.296Z,0.00
2018-05-16T00:17:33.152Z,0.00
2018-05-16T00:18:33.064Z,0.00
2018-05-16T00:19:53.861Z,0.00
2018-05-16T00:20:53.954Z,0.00
2018-05-16T00:21:53.603Z,0.00
2018-05-16T00:22:54.282Z,0.00
2018-05-16T00:23:53.998Z,0.00
2018-05-16T00:24:53.597Z,0.00
2018-05-16T00:25:54.132Z,0.00
2018-05-16T00:26:54.153Z,0.00
2018-05-16T00:27:54.312Z,0.00
2018-05-16T00:28:54.330Z,0.00
2018-05-16T00:30:14.496Z,0.00
2018-05-16T00:31:15.135Z,0.00
2018-05-16T00:32:14.862Z,0.00
2018-05-16T00:33:14.846Z,0.00
2018-05-16T00:34:15.417Z,0.00
2018-05-16T00:35:36.029Z,0.00
2018-05-16T00:37:17.116Z,0.00
2018-05-16T00:38:17.824Z,0.00
2018-05-16T00:39:17.429Z,0.00
2018-05-16T00:40:17.522Z,0.00
2018-05-16T00:41:18.430Z,0.00
2018-05-16T00:42:18.277Z,0.00
2018-05-16T00:43:17.816Z,0.00
2018-05-16T00:44:17.821Z,0.00
2018-05-16T00:45:17.816Z,0.00
2018-05-16T00:46:17.458Z,0.00
2018-05-16T00:47:17.856Z,0.00
2018-05-16T00:48:17.326Z,0.00
2018-05-16T00:49:18.263Z,0.00
2018-05-16T00:50:38.568Z,0.00
2018-05-16T00:51:39.026Z,0.00
2018-05-16T00:52:59.757Z,0.00
2018-05-16T00:54:00.746Z,0.00
2018-05-16T00:55:00.678Z,0.00
2018-05-16T00:56:00.591Z,0.00
2018-05-16T00:57:00.031Z,0.00
2018-05-16T00:58:20.718Z,0.00
2018-05-16T00:59:21.479Z,0.00
2018-05-16T01:00:21.307Z,0.00
2018-05-16T01:01:20.937Z,0.00
2018-05-16T01:02:21.544Z,0.00
2018-05-16T01:03:21.559Z,0.00
2018-05-16T01:04:21.130Z,0.00
2018-05-16T01:05:21.654Z,0.00
2018-05-16T01:06:21.240Z,0.00
2018-05-16T01:07:20.839Z,0.00
2018-05-16T01:08:21.672Z,0.00
2018-05-16T01:09:21.704Z,0.00
2018-05-16T01:10:21.386Z,0.00
2018-05-16T01:11:21.139Z,0.00
2018-05-16T01:12:21.234Z,0.00
2018-05-16T01:13:20.876Z,0.00
2018-05-16T01:14:21.498Z,0.00
2018-05-16T01:15:21.314Z,0.00
2018-05-16T01:16:21.151Z,0.00
2018-05-16T01:17:21.105Z,0.00
2018-05-16T01:18:20.666Z,0.00
2018-05-16T01:19:21.162Z,0.00
2018-05-16T01:20:21.156Z,0.00
2018-05-16T01:21:21.583Z,0.00
2018-05-16T01:22:21.689Z,0.00
2018-05-16T01:23:21.217Z,0.00
2018-05-16T01:24:21.047Z,0.00
2018-05-16T01:25:21.637Z,0.00
2018-05-16T01:26:21.287Z,0.00
2018-05-16T01:27:21.265Z,0.00
2018-05-16T01:28:20.878Z,0.00
2018-05-16T01:29:21.461Z,0.00
2018-05-16T01:30:21.032Z,0.00
2018-05-16T01:31:21.580Z,0.00
2018-05-16T01:32:21.487Z,0.00
2018-05-16T01:33:21.292Z,0.00
2018-05-16T01:34:20.851Z,0.00
2018-05-16T01:35:33.630Z,0.00
2018-05-16T01:36:21.123Z,0.00
2018-05-16T01:37:20.993Z,0.00
2018-05-16T01:38:21.543Z,0.00
2018-05-16T01:39:21.131Z,0.00
2018-05-16T01:40:20.806Z,0.00
2018-05-16T01:41:21.463Z,0.00
2018-05-16T01:42:21.080Z,0.00
2018-05-16T01:43:21.515Z,0.00
2018-05-16T01:44:21.351Z,0.00
2018-05-16T01:45:21.297Z,0.00
2018-05-16T01:46:21.074Z,0.00
2018-05-16T01:47:21.631Z,0.00
2018-05-16T01:48:21.196Z,0.00
2018-05-16T01:49:21.200Z,0.00
2018-05-16T01:50:21.250Z,0.00
2018-05-16T01:51:21.095Z,0.00
2018-05-16T01:53:05.118Z,0.00
2018-05-16T01:54:06.090Z,0.00
2018-05-16T01:55:05.828Z,0.00
2018-05-16T01:56:05.818Z,0.00
2018-05-16T01:57:05.341Z,0.00
2018-05-16T01:58:05.921Z,0.00
2018-05-16T01:59:05.840Z,0.00
2018-05-16T02:00:26.223Z,0.00
2018-05-16T02:01:27.276Z,0.00
2018-05-16T02:03:30.605Z,0.00
2018-05-16T02:04:31.274Z,0.00
2018-05-16T02:05:31.167Z,0.00
2018-05-16T02:07:32.398Z,0.00
2018-05-16T02:08:33.036Z,0.00
2018-05-16T02:09:32.887Z,0.00
2018-05-16T02:10:32.789Z,0.00
2018-05-16T02:11:33.758Z,0.00
2018-05-16T02:12:32.822Z,0.00
2018-05-16T02:13:32.512Z,0.00
2018-05-16T02:14:53.775Z,0.00
2018-05-16T02:15:54.842Z,0.00
2018-05-16T02:16:54.459Z,0.00
2018-05-16T02:17:54.147Z,0.00
2018-05-16T02:18:54.190Z,0.00
2018-05-16T02:19:54.739Z,0.00
2018-05-16T02:20:54.905Z,0.00
2018-05-16T02:21:54.562Z,0.00
2018-05-16T02:22:54.383Z,0.00
2018-05-16T02:23:54.174Z,0.00
2018-05-16T02:24:54.212Z,0.00
2018-05-16T02:25:54.215Z,0.00
2018-05-16T02:26:54.679Z,0.00
2018-05-16T02:27:54.454Z,0.00
2018-05-16T02:28:54.055Z,0.00
2018-05-16T02:29:54.721Z,0.00
2018-05-16T02:30:54.813Z,0.00
2018-05-16T02:31:54.726Z,0.00
2018-05-16T02:32:54.271Z,0.00
2018-05-16T02:33:54.272Z,0.00
2018-05-16T02:34:54.157Z,0.00
2018-05-16T02:35:54.615Z,0.00
2018-05-16T02:36:54.240Z,0.00
2018-05-16T02:37:53.918Z,0.00
2018-05-16T02:38:54.562Z,0.00
2018-05-16T02:39:54.413Z,0.00
2018-05-16T02:41:15.042Z,1.00
2018-05-16T02:42:16.003Z,1.00
2018-05-16T02:43:14.630Z,1.00
2018-05-16T02:44:15.403Z,0.00
2018-05-16T02:45:15.265Z,1.00
2018-05-16T02:46:15.138Z,1.00
2018-05-16T02:47:14.760Z,2.00
2018-05-16T02:48:56.521Z,1.00
2018-05-16T02:49:57.184Z,2.00
2018-05-16T02:51:37.860Z,2.00
2018-05-16T02:52:38.351Z,3.00
2018-05-16T02:53:38.394Z,3.00
2018-05-16T02:54:37.964Z,3.00
2018-05-16T02:55:38.582Z,4.00
2018-05-16T02:56:38.157Z,5.00
2018-05-16T02:57:59.545Z,5.00
2018-05-16T02:59:00.347Z,6.00
2018-05-16T02:59:59.871Z,7.00
2018-05-16T03:00:59.798Z,9.00
2018-05-16T03:01:59.560Z,9.00
2018-05-16T03:03:00.215Z,11.00
2018-05-16T03:03:59.937Z,13.00
2018-05-16T03:04:59.713Z,15.00
2018-05-16T03:05:59.725Z,17.00
2018-05-16T03:07:00.218Z,19.00
2018-05-16T03:08:00.274Z,21.00
2018-05-16T03:09:00.330Z,25.00
2018-05-16T03:09:59.955Z,28.00
2018-05-16T03:11:20.054Z,34.00
2018-05-16T03:12:21.395Z,38.00
2018-05-16T03:13:21.377Z,43.00
2018-05-16T03:14:21.388Z,49.00
2018-05-16T03:15:41.697Z,57.00
2018-05-16T03:16:42.260Z,64.00
2018-05-16T03:17:42.286Z,72.00
2018-05-16T03:18:42.398Z,80.00
2018-05-16T03:19:42.418Z,89.00
2018-05-16T03:20:42.058Z,99.00
2018-05-16T03:21:41.817Z,110.00
2018-05-16T03:22:41.484Z,121.00
2018-05-16T03:23:42.470Z,133.00
2018-05-16T03:24:42.065Z,147.00
2018-05-16T03:25:41.734Z,161.00
2018-05-16T03:26:42.717Z,176.00
2018-05-16T03:27:42.307Z,193.00
2018-05-16T03:28:42.408Z,211.00
2018-05-16T03:29:42.483Z,229.00
2018-05-16T03:30:42.285Z,249.00
2018-05-16T03:31:42.294Z,271.00
2018-05-16T03:32:42.179Z,292.00
2018-05-16T03:33:41.957Z,315.00
2018-05-16T03:34:41.988Z,338.00
2018-05-16T03:35:41.555Z,365.00
2018-05-16T03:36:42.114Z,390.00
2018-05-16T03:38:02.615Z,427.00
2018-05-16T03:39:03.236Z,456.00
2018-05-16T03:40:03.291Z,487.00
2018-05-16T03:41:02.789Z,518.00
2018-05-16T03:42:02.793Z,550.00
2018-05-16T03:43:02.932Z,583.00
2018-05-16T03:44:02.894Z,616.00
2018-05-16T03:45:03.084Z,651.00
2018-05-16T03:46:02.727Z,688.00
2018-05-16T03:47:02.379Z,724.00
2018-05-16T03:48:03.503Z,763.00
2018-05-16T03:49:03.561Z,803.00
2018-05-16T03:50:03.478Z,842.00
2018-05-16T03:51:03.162Z,884.00
2018-05-16T03:52:03.357Z,924.00
2018-05-16T03:53:03.059Z,968.00
2018-05-16T03:54:03.136Z,1011.00
2018-05-16T03:55:03.211Z,1057.00
2018-05-16T03:56:03.383Z,1108.00
2018-05-16T03:57:03.330Z,1160.00
2018-05-16T03:58:02.973Z,1216.00
2018-05-16T03:59:02.733Z,1272.00
2018-05-16T04:00:02.894Z,1329.00
2018-05-16T04:01:02.558Z,1391.00
2018-05-16T04:02:02.693Z,1453.00
2018-05-16T04:03:02.773Z,1514.00
2018-05-16T04:04:03.098Z,1578.00
2018-05-16T04:05:03.361Z,1641.00
2018-05-16T04:06:02.646Z,1700.00
2018-05-16T04:07:03.447Z,1752.00
2018-05-16T04:08:04.226Z,1801.00
2018-05-16T04:09:02.841Z,1847.00
2018-05-16T04:10:02.710Z,1890.00
2018-05-16T04:11:02.771Z,1929.00
2018-05-16T04:12:04.016Z,1973.00
2018-05-16T04:13:03.189Z,2014.00
2018-05-16T04:14:02.938Z,2060.00
2018-05-16T04:15:02.584Z,2108.00
2018-05-16T04:16:02.679Z,2165.00
2018-05-16T04:17:03.448Z,2228.00
2018-05-16T04:18:02.271Z,2283.00
2018-05-16T04:19:44.691Z,2352.00
2018-05-16T04:20:44.408Z,2378.00
2018-05-16T04:22:05.862Z,2407.00
2018-05-16T04:23:06.547Z,2421.00
2018-05-16T04:24:06.259Z,2427.00
2018-05-16T04:25:06.191Z,2432.00
2018-05-16T04:27:29.026Z,2442.00
2018-05-16T04:28:29.971Z,2440.00
2018-05-16T04:29:30.203Z,2438.00
2018-05-16T04:30:29.970Z,2431.00
2018-05-16T04:31:30.084Z,2421.00
2018-05-16T04:32:50.875Z,2434.00
2018-05-16T04:33:51.106Z,2505.00
2018-05-16T04:34:50.779Z,2656.00
2018-05-16T04:35:50.873Z,2878.00
2018-05-16T04:36:50.566Z,3111.00
2018-05-16T04:37:51.647Z,3343.00
2018-05-16T04:38:52.672Z,3530.00
2018-05-16T04:40:33.601Z,3832.00
2018-05-16T04:41:33.299Z,4012.00
2018-05-16T04:42:34.402Z,4188.00
2018-05-16T04:43:34.416Z,4268.00
2018-05-16T04:44:34.965Z,4215.00
2018-05-16T04:45:55.005Z,4165.00
2018-05-16T04:46:55.111Z,4150.00
2018-05-16T04:47:54.928Z,4118.00
2018-05-16T04:48:54.834Z,4068.00
2018-05-16T04:49:55.521Z,4011.00
2018-05-16T04:51:15.740Z,3927.00
2018-05-16T04:52:16.871Z,3858.00
2018-05-16T04:53:16.513Z,3868.00
2018-05-16T04:54:16.232Z,3997.00
2018-05-16T04:55:16.006Z,4261.00
2018-05-16T04:56:16.081Z,4592.00
2018-05-16T04:57:15.852Z,4880.00
2018-05-16T04:58:16.690Z,5004.00
2018-05-16T04:59:16.480Z,4912.00
2018-05-16T05:00:16.129Z,4687.00
2018-05-16T05:01:16.292Z,4452.00
2018-05-16T05:02:16.123Z,4201.00
2018-05-16T05:03:16.765Z,3974.00
2018-05-16T05:04:16.858Z,3750.00
2018-05-16T05:05:17.051Z,3580.00
2018-05-16T05:06:15.840Z,3508.00
2018-05-16T05:07:16.541Z,3502.00
2018-05-16T05:08:16.684Z,3630.00
2018-05-16T05:09:16.861Z,3939.00
2018-05-16T05:10:16.035Z,4511.00
2018-05-16T05:11:15.722Z,5197.00
2018-05-16T05:12:16.576Z,5590.00
2018-05-16T05:13:16.660Z,5683.00
2018-05-16T05:14:16.793Z,5802.00
2018-05-16T05:15:57.865Z,6660.00
2018-05-16T05:16:59.302Z,7649.00
2018-05-16T05:17:58.237Z,8966.00
2018-05-16T05:18:58.081Z,10489.00
2018-05-16T05:19:59.129Z,11989.00
2018-05-16T05:21:18.814Z,13147.00
2018-05-16T05:22:19.465Z,14844.00
2018-05-16T05:23:19.358Z,14392.00
2018-05-16T05:24:19.175Z,13229.00
2018-05-16T05:25:19.363Z,12854.00
2018-05-16T05:26:19.185Z,11896.00
2018-05-16T05:27:19.329Z,11680.00
2018-05-16T05:28:19.528Z,10087.00
2018-05-16T05:29:19.572Z,8850.00
2018-05-16T05:30:19.543Z,7929.00
2018-05-16T05:31:19.325Z,7531.00
2018-05-16T05:32:18.941Z,7694.00
2018-05-16T05:33:18.818Z,8191.00
2018-05-16T05:34:20.065Z,8503.00
2018-05-16T05:35:18.827Z,9098.00
2018-05-16T05:36:19.619Z,9862.00
2018-05-16T05:37:19.780Z,10282.00
2018-05-16T05:38:19.795Z,10662.00
2018-05-16T05:39:20.032Z,11348.00
2018-05-16T05:40:40.314Z,12194.00
2018-05-16T05:41:40.075Z,12405.00
2018-05-16T05:42:39.879Z,12192.00
2018-05-16T05:43:40.703Z,12349.00
2018-05-16T05:44:40.305Z,12166.00
2018-05-16T05:45:40.182Z,11590.00
2018-05-16T05:46:41.318Z,11471.00
2018-05-16T05:47:41.408Z,11459.00
2018-05-16T05:48:40.552Z,11152.00
2018-05-16T05:49:40.785Z,10815.00
2018-05-16T05:50:40.534Z,10302.00
2018-05-16T05:51:40.613Z,10148.00
2018-05-16T05:52:40.432Z,10538.00
2018-05-16T05:53:40.599Z,11475.00
2018-05-16T05:54:40.820Z,12226.00
2018-05-16T05:55:41.192Z,12710.00
2018-05-16T05:56:40.837Z,13241.00
2018-05-16T05:57:41.096Z,13949.00
2018-05-16T05:58:39.986Z,14035.00
2018-05-16T05:59:40.804Z,13980.00
2018-05-16T06:00:40.514Z,13592.00
2018-05-16T06:01:40.786Z,13525.00
2018-05-16T06:02:40.602Z,13589.00
2018-05-16T06:03:40.521Z,13431.00
2018-05-16T06:05:00.882Z,13378.00
2018-05-16T06:06:02.108Z,13456.00
2018-05-16T06:07:01.344Z,13262.00
2018-05-16T06:08:22.298Z,12857.00
2018-05-16T06:09:22.121Z,12582.00
2018-05-16T06:10:22.389Z,12531.00
2018-05-16T06:11:22.656Z,12698.00
2018-05-16T06:12:22.426Z,13124.00
2018-05-16T06:13:22.657Z,13966.00
2018-05-16T06:14:22.868Z,14891.00
2018-05-16T06:15:23.184Z,15278.00
2018-05-16T06:16:23.644Z,15159.00
2018-05-16T06:17:22.929Z,14856.00
2018-05-16T06:18:22.881Z,14432.00
2018-05-16T06:19:23.213Z,13969.00
2018-05-16T06:20:43.717Z,13486.00
2018-05-16T06:21:44.932Z,13362.00
2018-05-16T06:22:44.170Z,13367.00
2018-05-16T06:24:05.346Z,13192.00
2018-05-16T06:25:05.091Z,12904.00
2018-05-16T06:26:04.983Z,12625.00
2018-05-16T06:27:26.041Z,12482.00
2018-05-16T06:28:27.288Z,12804.00
2018-05-16T06:29:26.232Z,13852.00
2018-05-16T06:30:26.112Z,15174.00
2018-05-16T06:31:30.821Z,16816.00
2018-05-16T06:32:26.618Z,18368.00
2018-05-16T06:33:47.686Z,19888.00
2018-05-16T06:34:49.372Z,20408.00
2018-05-16T06:35:48.108Z,20416.00
2018-05-16T06:36:48.024Z,19664.00
2018-05-16T06:37:48.239Z,18176.00
2018-05-16T06:38:48.239Z,16193.00
2018-05-16T06:39:48.010Z,14397.00
2018-05-16T06:40:48.151Z,13230.00
2018-05-16T06:41:48.031Z,12626.00
2018-05-16T06:42:48.832Z,12744.00
2018-05-16T06:43:47.790Z,13487.00
2018-05-16T06:44:47.563Z,14508.00
2018-05-16T06:45:47.503Z,14818.00
2018-05-16T06:46:48.310Z,14752.00
2018-05-16T06:47:48.377Z,14714.00
2018-05-16T06:48:48.136Z,14692.00
2018-05-16T06:49:48.114Z,15553.00
2018-05-16T06:50:48.043Z,17632.00
2018-05-16T06:51:47.859Z,19256.00
2018-05-16T06:52:48.011Z,18784.00
2018-05-16T06:53:47.889Z,18376.00
2018-05-16T06:54:48.376Z,18560.00
2018-05-16T06:56:08.953Z,19240.00
2018-05-16T06:57:09.853Z,19352.00
2018-05-16T06:58:10.040Z,18664.00
2018-05-16T06:59:52.493Z,17216.00
2018-05-16T07:00:52.404Z,16640.00
2018-05-16T07:01:53.867Z,16584.00
2018-05-16T07:03:13.725Z,17352.00
2018-05-16T07:04:14.692Z,18512.00
2018-05-16T07:05:15.026Z,19048.00
2018-05-16T07:06:14.155Z,20656.00
2018-05-16T07:07:13.949Z,22248.00
2018-05-16T07:08:34.675Z,22040.00
2018-05-16T07:09:36.041Z,22160.00
2018-05-16T07:10:35.177Z,22568.00
2018-05-16T07:11:35.437Z,23352.00
2018-05-16T07:12:35.654Z,22968.00
2018-05-16T07:13:35.956Z,22160.00
2018-05-16T07:14:35.370Z,21280.00
2018-05-16T07:15:35.651Z,20360.00
2018-05-16T07:16:35.939Z,19392.00
2018-05-16T07:17:35.211Z,18168.00
2018-05-16T07:18:35.439Z,17480.00
2018-05-16T07:19:35.291Z,16294.00
2018-05-16T07:20:35.163Z,14875.00
2018-05-16T07:21:35.343Z,15571.00
2018-05-16T07:22:35.118Z,17952.00
2018-05-16T07:23:35.477Z,16448.00
2018-05-16T07:24:35.666Z,13810.00
2018-05-16T07:25:35.625Z,12294.00
2018-05-16T07:26:35.677Z,12905.00
2018-05-16T07:27:35.992Z,15042.00
2018-05-16T07:28:34.882Z,17744.00
2018-05-16T07:29:34.718Z,19256.00
2018-05-16T07:30:36.284Z,18144.00
2018-05-16T07:31:35.025Z,17176.00
2018-05-16T07:32:35.590Z,18088.00
2018-05-16T07:33:35.744Z,19520.00
2018-05-16T07:34:35.932Z,20408.00
2018-05-16T07:35:56.741Z,21920.00
2018-05-16T07:36:56.900Z,22416.00
2018-05-16T07:37:57.052Z,22896.00
2018-05-16T07:38:56.903Z,22768.00
2018-05-16T07:39:56.806Z,22416.00
2018-05-16T07:40:56.914Z,20344.00
2018-05-16T07:41:56.856Z,18640.00
2018-05-16T07:42:56.844Z,18520.00
2018-05-16T07:43:57.348Z,21000.00
2018-05-16T07:44:57.336Z,26224.00
2018-05-16T07:45:57.640Z,37192.00
2018-05-16T07:46:56.890Z,38024.00
2018-05-16T07:47:56.844Z,54464.00
2018-05-16T07:48:57.005Z,37888.00
2018-05-16T07:49:56.960Z,29928.00
2018-05-16T07:50:57.082Z,33448.00
2018-05-16T07:51:56.800Z,35368.00
2018-05-16T07:52:56.646Z,39792.00
2018-05-16T07:54:17.749Z,41616.00
2018-05-16T07:55:17.851Z,49040.00
2018-05-16T07:56:17.746Z,32848.00
2018-05-16T07:57:17.667Z,28736.00
2018-05-16T07:58:38.669Z,23224.00
2018-05-16T07:59:39.278Z,21144.00
2018-05-16T08:00:39.072Z,20448.00
2018-05-16T08:01:38.938Z,20616.00
2018-05-16T08:02:39.357Z,21704.00
2018-05-16T08:03:39.512Z,20984.00
2018-05-16T08:04:40.480Z,20672.00
2018-05-16T08:05:38.886Z,22872.00
2018-05-16T08:06:39.650Z,31576.00
2018-05-16T08:07:39.797Z,50296.00
2018-05-16T08:08:39.231Z,41328.00
2018-05-16T08:09:38.530Z,33944.00
2018-05-16T08:10:38.880Z,31632.00
2018-05-16T08:11:40.319Z,34024.00
2018-05-16T08:12:39.585Z,33008.00
2018-05-16T08:13:39.077Z,35720.00
2018-05-16T08:14:39.946Z,54368.00
2018-05-16T08:15:39.287Z,38152.00
2018-05-16T08:16:39.621Z,32488.00
2018-05-16T08:17:38.953Z,31768.00
2018-05-16T08:18:40.014Z,30040.00
2018-05-16T08:20:01.023Z,31056.00
2018-05-16T08:21:01.058Z,36384.00
2018-05-16T08:22:02.697Z,65535.00
2018-05-16T08:23:24.641Z,50480.00
2018-05-16T08:24:24.015Z,62976.00
2018-05-16T08:25:23.833Z,59560.00
2018-05-16T08:26:24.445Z,58368.00
2018-05-16T08:27:24.001Z,52824.00
2018-05-16T08:28:25.461Z,59032.00
2018-05-16T08:29:24.299Z,36360.00
2018-05-16T08:30:24.697Z,59080.00
2018-05-16T08:31:25.949Z,65535.00
2018-05-16T08:32:23.838Z,65535.00
2018-05-16T08:34:07.828Z,62832.00
2018-05-16T08:35:08.306Z,33392.00
2018-05-16T08:36:08.523Z,36104.00
2018-05-16T08:37:08.456Z,43144.00
2018-05-16T08:38:08.258Z,62056.00
2018-05-16T08:39:10.281Z,34920.00
2018-05-16T08:40:07.681Z,59496.00
2018-05-16T08:41:08.439Z,61104.00
2018-05-16T08:42:07.824Z,57760.00
2018-05-16T08:43:08.775Z,59472.00
2018-05-16T08:44:28.554Z,57032.00
2018-05-16T08:45:28.476Z,45392.00
2018-05-16T08:46:29.660Z,46672.00
2018-05-16T08:47:28.938Z,48016.00
2018-05-16T08:48:29.110Z,53648.00
2018-05-16T08:49:29.157Z,49560.00
2018-05-16T08:50:29.070Z,60456.00
2018-05-16T08:51:29.440Z,44880.00
2018-05-16T08:52:29.855Z,45168.00
2018-05-16T08:53:28.689Z,56256.00
2018-05-16T08:54:28.624Z,56344.00
2018-05-16T08:55:28.766Z,55168.00
2018-05-16T08:57:30.970Z,54752.00
2018-05-16T08:58:31.353Z,56016.00
2018-05-16T08:59:31.216Z,58416.00
2018-05-16T09:00:31.076Z,58640.00
2018-05-16T09:01:31.899Z,58744.00
2018-05-16T09:02:32.359Z,58152.00
2018-05-16T09:03:52.334Z,61952.00
2018-05-16T09:04:52.497Z,58632.00
2018-05-16T09:05:52.322Z,61336.00
2018-05-16T09:06:52.414Z,65535.00
2018-05-16T09:07:52.249Z,61944.00
2018-05-16T09:09:33.830Z,56488.00
2018-05-16T09:10:35.037Z,58328.00
2018-05-16T09:11:34.274Z,61760.00
2018-05-16T09:12:34.632Z,59792.00
2018-05-16T09:13:35.904Z,59744.00
2018-05-16T09:14:55.175Z,54320.00
2018-05-16T09:15:55.151Z,50432.00
2018-05-16T09:16:54.934Z,47240.00
2018-05-16T09:17:55.151Z,45088.00
2018-05-16T09:18:54.984Z,44760.00
2018-05-16T09:19:55.353Z,43064.00
2018-05-16T09:20:55.484Z,41496.00
2018-05-16T09:21:55.471Z,40264.00
2018-05-16T09:22:55.459Z,40760.00
2018-05-16T09:23:55.754Z,41880.00
2018-05-16T09:24:55.935Z,46064.00
2018-05-16T09:25:54.734Z,48328.00
2018-05-16T09:26:55.831Z,49368.00
2018-05-16T09:27:55.102Z,48280.00
2018-05-16T09:28:55.265Z,47680.00
2018-05-16T09:29:56.007Z,48608.00
2018-05-16T09:30:55.181Z,49632.00
2018-05-16T09:31:54.957Z,49512.00
2018-05-16T09:32:55.288Z,49768.00
2018-05-16T09:33:55.449Z,48880.00
2018-05-16T09:34:55.292Z,49896.00
2018-05-16T09:35:55.134Z,49480.00
2018-05-16T09:37:16.082Z,49152.00
2018-05-16T09:38:16.188Z,48848.00
2018-05-16T09:39:37.044Z,49376.00
2018-05-16T09:40:36.793Z,47744.00
2018-05-16T09:41:36.637Z,43832.00
2018-05-16T09:42:37.450Z,48384.00
2018-05-16T09:43:37.828Z,50992.00
2018-05-16T09:44:37.044Z,53464.00
2018-05-16T09:45:37.264Z,57408.00
2018-05-16T09:46:36.892Z,59192.00
2018-05-16T09:47:37.277Z,65528.00
2018-05-16T09:49:18.300Z,65535.00
2018-05-16T09:50:19.386Z,65535.00
2018-05-16T09:51:19.679Z,65535.00
2018-05-16T09:52:19.441Z,65535.00
2018-05-16T09:53:18.997Z,65535.00
2018-05-16T09:54:18.958Z,65535.00
2018-05-16T09:55:18.824Z,65535.00
2018-05-16T09:56:19.325Z,65535.00
2018-05-16T09:57:19.107Z,65535.00
2018-05-16T09:58:19.185Z,65535.00
2018-05-16T09:59:39.925Z,65535.00
2018-05-16T10:00:39.830Z,65535.00
2018-05-16T10:01:39.981Z,65535.00
2018-05-16T10:02:39.943Z,65535.00
2018-05-16T10:03:39.713Z,65535.00
2018-05-16T10:04:40.569Z,63480.00
2018-05-16T10:05:40.914Z,63272.00
2018-05-16T10:06:40.023Z,63224.00
2018-05-16T10:07:40.389Z,64576.00
2018-05-16T10:08:40.614Z,65535.00
2018-05-16T10:10:21.468Z,62992.00
2018-05-16T10:11:21.780Z,63704.00
2018-05-16T10:12:21.606Z,65535.00
2018-05-16T10:13:21.910Z,65535.00
2018-05-16T10:14:21.681Z,65535.00
2018-05-16T10:15:22.147Z,65535.00
2018-05-16T10:16:22.495Z,65535.00
2018-05-16T10:17:21.241Z,65535.00
2018-05-16T10:18:23.281Z,65535.00
2018-05-16T10:19:22.007Z,65535.00
2018-05-16T10:20:22.082Z,65535.00
2018-05-16T10:21:22.135Z,58784.00
2018-05-16T10:22:22.425Z,65535.00
2018-05-16T10:23:21.624Z,64112.00
2018-05-16T10:24:21.628Z,58920.00
2018-05-16T10:25:22.055Z,65535.00
2018-05-16T10:26:42.861Z,65535.00
2018-05-16T10:27:44.756Z,65535.00
2018-05-16T10:28:43.628Z,65535.00
2018-05-16T10:30:04.860Z,65535.00
2018-05-16T10:31:05.681Z,65535.00
2018-05-16T10:32:05.418Z,65535.00
2018-05-16T10:33:05.317Z,65535.00
2018-05-16T10:34:05.599Z,65535.00
2018-05-16T10:35:05.761Z,65535.00
2018-05-16T10:36:04.506Z,65535.00
2018-05-16T10:37:49.653Z,65535.00
2018-05-16T10:38:49.986Z,53536.00
2018-05-16T10:39:50.343Z,65535.00
2018-05-16T10:40:50.472Z,65535.00
2018-05-16T10:41:49.283Z,65535.00
2018-05-16T10:42:50.524Z,65535.00
2018-05-16T10:43:49.913Z,55080.00
2018-05-16T10:45:32.924Z,65535.00
2018-05-16T10:46:33.217Z,44368.00
2018-05-16T10:47:33.318Z,59096.00
2018-05-16T10:48:33.405Z,44360.00
2018-05-16T10:49:54.459Z,48776.00
2018-05-16T10:50:54.312Z,48560.00
2018-05-16T10:51:54.139Z,49584.00
2018-05-16T10:52:54.905Z,47096.00
2018-05-16T10:53:54.552Z,43904.00
2018-05-16T10:54:54.816Z,45008.00
2018-05-16T10:55:54.757Z,44384.00
2018-05-16T10:57:57.717Z,42656.00
2018-05-16T10:58:57.426Z,42320.00
2018-05-16T10:59:58.671Z,40376.00
2018-05-16T11:00:57.968Z,43520.00
2018-05-16T11:01:58.196Z,48304.00
2018-05-16T11:02:57.945Z,49272.00
2018-05-16T11:03:57.743Z,49480.00
2018-05-16T11:04:57.684Z,49320.00
2018-05-16T11:05:58.029Z,52336.00
2018-05-16T11:06:58.162Z,52080.00
2018-05-16T11:07:58.643Z,50096.00
2018-05-16T11:08:57.290Z,50032.00
2018-05-16T11:09:58.608Z,51648.00
2018-05-16T11:10:57.447Z,55552.00
2018-05-16T11:11:58.193Z,59040.00
2018-05-16T11:12:58.070Z,62360.00
2018-05-16T11:14:18.727Z,65535.00
2018-05-16T11:15:18.980Z,65535.00
2018-05-16T11:16:19.739Z,65535.00
2018-05-16T11:17:19.039Z,65168.00
2018-05-16T11:18:19.060Z,61120.00
2018-05-16T11:20:01.045Z,65535.00
2018-05-16T11:21:01.235Z,65535.00
2018-05-16T11:22:22.053Z,65535.00
2018-05-16T11:23:23.271Z,65535.00
2018-05-16T11:24:22.162Z,64568.00
2018-05-16T11:25:22.333Z,63464.00
2018-05-16T11:26:22.502Z,64160.00
2018-05-16T11:28:03.844Z,65535.00
2018-05-16T11:29:04.964Z,65535.00
2018-05-16T11:30:05.180Z,65535.00
2018-05-16T11:31:04.273Z,65535.00
2018-05-16T11:33:07.907Z,63048.00
2018-05-16T11:34:08.143Z,64632.00
2018-05-16T11:35:08.053Z,64904.00
2018-05-16T11:36:07.767Z,64768.00
2018-05-16T11:37:08.119Z,64680.00
2018-05-16T11:38:07.993Z,65535.00
2018-05-16T11:39:08.056Z,62968.00
2018-05-16T11:40:08.378Z,65535.00
2018-05-16T11:41:07.230Z,65535.00
2018-05-16T11:42:48.902Z,65535.00
2018-05-16T11:43:49.811Z,65535.00
2018-05-16T11:44:50.014Z,62072.00
2018-05-16T11:45:48.943Z,60392.00
2018-05-16T11:46:49.760Z,58472.00
2018-05-16T11:47:49.686Z,49808.00
2018-05-16T11:49:32.123Z,44976.00
2018-05-16T11:50:32.043Z,54160.00
2018-05-16T11:52:13.908Z,52632.00
2018-05-16T11:53:15.663Z,48616.00
2018-05-16T11:54:16.892Z,49608.00
2018-05-16T11:55:35.341Z,38696.00
2018-05-16T11:56:35.210Z,37760.00
2018-05-16T11:57:35.446Z,42168.00
2018-05-16T11:58:35.675Z,39128.00
2018-05-16T11:59:35.897Z,40832.00
2018-05-16T12:00:35.240Z,47304.00
2018-05-16T12:01:35.290Z,55608.00
2018-05-16T12:02:56.190Z,65535.00
2018-05-16T12:03:56.160Z,55376.00
2018-05-16T12:04:56.451Z,56960.00
2018-05-16T12:05:56.416Z,57064.00
2018-05-16T12:06:56.820Z,48448.00
2018-05-16T12:07:56.328Z,43360.00
2018-05-16T12:08:56.571Z,39768.00
2018-05-16T12:09:56.780Z,37816.00
2018-05-16T12:10:57.630Z,36264.00
2018-05-16T12:11:56.994Z,35400.00
2018-05-16T12:12:57.874Z,36960.00
2018-05-16T12:14:17.326Z,41232.00
2018-05-16T12:15:38.324Z,38872.00
2018-05-16T12:16:38.380Z,40624.00
2018-05-16T12:17:38.700Z,35136.00
2018-05-16T12:18:39.125Z,34912.00
2018-05-16T12:19:37.934Z,36376.00
2018-05-16T12:20:59.419Z,45320.00
2018-05-16T12:22:22.558Z,54592.00
2018-05-16T12:23:43.893Z,65535.00
2018-05-16T12:24:43.911Z,65535.00
2018-05-16T12:25:44.175Z,64000.00
2018-05-16T12:26:44.584Z,42520.00
2018-05-16T12:27:44.625Z,40056.00
2018-05-16T12:28:43.629Z,38624.00
2018-05-16T12:29:44.522Z,38752.00
2018-05-16T12:30:44.582Z,47056.00
2018-05-16T12:31:43.940Z,52888.00
2018-05-16T12:33:04.712Z,55368.00
2018-05-16T12:34:46.339Z,53408.00
2018-05-16T12:35:47.567Z,53256.00
2018-05-16T12:36:46.259Z,61488.00
2018-05-16T12:37:46.703Z,58688.00
2018-05-16T12:38:46.754Z,65535.00
2018-05-16T12:39:47.105Z,53696.00
2018-05-16T12:40:47.241Z,65535.00
2018-05-16T12:42:08.111Z,41064.00
2018-05-16T12:43:09.330Z,42424.00
2018-05-16T12:44:08.455Z,44272.00
2018-05-16T12:45:29.117Z,30584.00
2018-05-16T12:46:29.706Z,27256.00
2018-05-16T12:47:29.516Z,28104.00
2018-05-16T12:48:29.963Z,32392.00
2018-05-16T12:49:30.897Z,41832.00
2018-05-16T12:50:29.977Z,65535.00
2018-05-16T12:51:30.572Z,40352.00